createdAt,value
2019-04-20T00:00:51.547Z,5.43
2019-04-20T00:02:19.354Z,5.87
2019-04-20T00:03:45.609Z,5.90
2019-04-20T00:05:10.748Z,5.13
2019-04-20T00:06:43.383Z,4.40
2019-04-20T00:08:08.996Z,5.30
2019-04-20T00:09:34.858Z,4.73
2019-04-20T00:11:07.362Z,4.20
2019-04-20T00:12:36.737Z,4.10
2019-04-20T00:14:08.546Z,4.30
2019-04-20T00:15:28.328Z,5.10
2019-04-20T00:16:54.693Z,4.77
2019-04-20T00:18:21.104Z,4.90
2019-04-20T00:19:50.459Z,4.80
2019-04-20T00:21:35.621Z,4.70
2019-04-20T00:23:26.998Z,4.87
2019-04-20T00:25:10.540Z,4.63
2019-04-20T00:27:04.443Z,4.97
2019-04-20T00:28:24.032Z,5.00
2019-04-20T00:30:22.781Z,4.93
2019-04-20T00:31:48.108Z,4.93
2019-04-20T00:33:39.756Z,4.87
2019-04-20T00:35:04.213Z,4.60
2019-04-20T00:37:00.697Z,6.93
2019-04-20T00:38:49.648Z,8.50
2019-04-20T00:40:30.633Z,9.10
2019-04-20T00:42:07.555Z,10.27
2019-04-20T00:43:45.616Z,10.50
2019-04-20T00:45:19.129Z,8.77
2019-04-20T00:46:51.321Z,7.60
2019-04-20T00:48:19.958Z,7.37
2019-04-20T00:49:48.421Z,6.40
2019-04-20T00:51:21.260Z,6.50
2019-04-20T00:52:43.812Z,6.57
2019-04-20T00:53:57.198Z,5.93
2019-04-20T00:55:23.199Z,5.47
2019-04-20T00:56:49.834Z,5.03
2019-04-20T00:58:23.366Z,6.40
2019-04-20T01:00:07.581Z,5.13
2019-04-20T01:01:32.197Z,5.50
2019-04-20T01:02:50.604Z,5.07
2019-04-20T01:04:20.186Z,5.10
2019-04-20T01:05:58.209Z,4.53
2019-04-20T01:07:37.452Z,5.50
2019-04-20T01:09:09.910Z,4.70
2019-04-20T01:10:41.637Z,3.30
2019-04-20T01:12:11.867Z,3.83
2019-04-20T01:13:31.683Z,4.40
2019-04-20T01:15:02.756Z,4.10
2019-04-20T01:16:36.507Z,4.10
2019-04-20T01:17:52.205Z,4.67
2019-04-20T01:19:19.372Z,4.53
2019-04-20T01:20:45.253Z,4.07
2019-04-20T01:22:15.971Z,4.03
2019-04-20T01:23:46.231Z,3.80
2019-04-20T01:25:14.143Z,4.20
2019-04-20T01:26:35.595Z,4.60
2019-04-20T01:28:13.032Z,3.50
2019-04-20T01:29:36.954Z,3.60
2019-04-20T01:31:09.218Z,3.70
2019-04-20T01:32:31.900Z,2.87
2019-04-20T01:33:58.926Z,3.30
2019-04-20T01:35:36.530Z,3.30
2019-04-20T01:37:00.982Z,3.57
2019-04-20T01:38:26.844Z,3.27
2019-04-20T01:39:44.294Z,4.23
2019-04-20T01:41:05.474Z,4.50
2019-04-20T01:42:32.088Z,3.80
2019-04-20T01:43:58.573Z,4.80
2019-04-20T01:45:29.577Z,5.47
2019-04-20T01:46:55.244Z,4.47
2019-04-20T01:48:22.029Z,5.90
2019-04-20T01:49:47.802Z,6.07
2019-04-20T01:51:19.568Z,5.70
2019-04-20T01:52:50.746Z,5.17
2019-04-20T01:54:26.073Z,5.87
2019-04-20T01:55:53.345Z,5.97
2019-04-20T01:58:00.168Z,5.90
2019-04-20T01:59:38.634Z,5.67
2019-04-20T02:01:32.669Z,5.87
2019-04-20T02:03:14.967Z,6.00
2019-04-20T02:05:07.084Z,7.23
2019-04-20T02:06:28.701Z,6.23
2019-04-20T02:07:55.869Z,6.30
2019-04-20T02:09:26.009Z,5.67
2019-04-20T02:10:53.696Z,5.70
2019-04-20T02:12:23.629Z,6.70
2019-04-20T02:13:49.849Z,5.67
2019-04-20T02:15:20.066Z,5.70
2019-04-20T02:16:45.221Z,5.80
2019-04-20T02:18:20.513Z,6.10
2019-04-20T02:19:49.133Z,6.40
2019-04-20T02:21:19.841Z,6.93
2019-04-20T02:22:50.095Z,5.90
2019-04-20T02:24:03.996Z,5.37
2019-04-20T02:25:27.051Z,7.40
2019-04-20T02:26:53.585Z,7.00
2019-04-20T02:28:37.417Z,8.70
2019-04-20T02:30:13.812Z,7.50
2019-04-20T02:33:27.463Z,8.47
2019-04-20T02:37:04.518Z,7.60
2019-04-20T02:41:30.004Z,7.67
2019-04-20T02:42:51.523Z,8.03
2019-04-20T02:47:01.196Z,10.33
2019-04-20T02:48:25.352Z,9.83
2019-04-20T02:49:52.484Z,9.13
2019-04-20T02:51:13.442Z,8.38
2019-04-20T02:52:51.027Z,5.97
2019-04-20T02:54:14.992Z,5.70
2019-04-20T02:55:43.535Z,5.50
2019-04-20T02:58:36.690Z,6.40
2019-04-20T03:01:42.033Z,6.10
2019-04-20T03:03:03.310Z,6.30
2019-04-20T03:04:28.353Z,6.70
2019-04-20T03:06:00.145Z,7.30
2019-04-20T03:07:25.592Z,6.60
2019-04-20T03:08:56.411Z,6.80
2019-04-20T03:10:34.394Z,6.07
2019-04-20T03:13:18.531Z,5.50
2019-04-20T03:14:44.714Z,6.40
2019-04-20T03:16:11.382Z,6.42
2019-04-20T03:17:46.312Z,6.63
2019-04-20T03:19:04.819Z,7.30
2019-04-20T03:20:48.444Z,6.00
2019-04-20T03:22:09.156Z,7.70
2019-04-20T03:23:35.360Z,6.17
2019-04-20T03:25:18.068Z,6.60
2019-04-20T03:26:40.239Z,6.70
2019-04-20T03:28:10.852Z,7.07
2019-04-20T03:29:56.779Z,6.80
2019-04-20T03:31:41.202Z,6.50
2019-04-20T03:33:12.605Z,6.80
2019-04-20T03:34:50.484Z,7.33
2019-04-20T03:35:58.677Z,6.77
2019-04-20T03:37:21.811Z,7.73
2019-04-20T03:38:41.353Z,6.80
2019-04-20T03:40:05.483Z,6.27
2019-04-20T03:41:24.473Z,6.43
2019-04-20T03:42:43.391Z,6.43
2019-04-20T03:44:15.350Z,6.20
2019-04-20T03:45:44.530Z,7.15
2019-04-20T03:47:08.843Z,5.40
2019-04-20T03:48:46.725Z,6.27
2019-04-20T03:50:26.048Z,5.60
2019-04-20T03:51:46.993Z,6.97
2019-04-20T03:53:24.714Z,6.07
2019-04-20T03:55:09.520Z,5.78
2019-04-20T03:56:42.274Z,6.83
2019-04-20T03:58:24.192Z,6.78
2019-04-20T04:00:22.082Z,8.33
2019-04-20T04:02:25.470Z,8.25
2019-04-20T04:03:45.930Z,8.93
2019-04-20T04:05:05.154Z,8.20
2019-04-20T04:06:26.389Z,8.13
2019-04-20T04:07:50.889Z,8.93
2019-04-20T04:09:23.656Z,9.00
2019-04-20T04:10:54.799Z,9.03
2019-04-20T04:12:46.767Z,7.67
2019-04-20T04:14:11.582Z,8.08
2019-04-20T04:15:50.209Z,7.20
2019-04-20T04:17:15.288Z,7.17
2019-04-20T04:18:42.733Z,8.37
2019-04-20T04:20:11.636Z,8.08
2019-04-20T04:21:47.399Z,7.17
2019-04-20T04:23:14.989Z,6.42
2019-04-20T04:24:37.754Z,7.83
2019-04-20T04:26:08.824Z,6.83
2019-04-20T04:27:41.714Z,6.30
2019-04-20T04:29:13.601Z,5.33
2019-04-20T04:30:30.754Z,4.83
2019-04-20T04:32:12.585Z,4.70
2019-04-20T04:34:52.745Z,4.62
2019-04-20T04:36:21.226Z,4.10
2019-04-20T04:37:45.868Z,4.40
2019-04-20T04:39:21.029Z,4.28
2019-04-20T04:40:59.034Z,4.17
2019-04-20T04:42:16.705Z,4.58
2019-04-20T04:43:39.984Z,4.72
2019-04-20T04:44:56.481Z,3.52
2019-04-20T04:46:14.938Z,5.05
2019-04-20T04:47:40.869Z,5.42
2019-04-20T04:49:18.031Z,5.40
2019-04-20T04:50:44.876Z,6.55
2019-04-20T04:52:06.285Z,6.65
2019-04-20T04:53:41.679Z,6.97
2019-04-20T04:55:07.715Z,7.45
2019-04-20T04:56:24.881Z,7.33
2019-04-20T04:57:49.735Z,7.75
2019-04-20T04:59:15.196Z,8.38
2019-04-20T05:00:40.880Z,9.43
2019-04-20T05:02:07.588Z,9.33
2019-04-20T05:03:58.245Z,8.48
2019-04-20T05:05:36.009Z,8.85
2019-04-20T05:06:59.483Z,9.18
2019-04-20T05:08:21.964Z,9.30
2019-04-20T05:09:41.489Z,10.00
2019-04-20T05:11:09.012Z,10.28
2019-04-20T05:12:37.009Z,9.25
2019-04-20T05:14:05.635Z,9.45
2019-04-20T05:15:44.538Z,10.90
2019-04-20T05:17:11.455Z,10.55
2019-04-20T05:18:44.869Z,11.17
2019-04-20T05:20:12.107Z,10.90
2019-04-20T05:22:04.015Z,10.68
2019-04-20T05:23:37.753Z,12.70
2019-04-20T05:25:30.982Z,13.35
2019-04-20T05:27:15.980Z,14.60
2019-04-20T05:28:27.901Z,13.00
2019-04-20T05:29:43.087Z,14.75
2019-04-20T05:31:11.387Z,15.50
2019-04-20T05:32:49.501Z,14.80
2019-04-20T05:34:27.502Z,15.70
2019-04-20T05:35:58.921Z,16.55
2019-04-20T05:37:27.462Z,17.55
2019-04-20T05:38:46.962Z,15.60
2019-04-20T05:40:18.993Z,16.60
2019-04-20T05:41:38.363Z,14.90
2019-04-20T05:43:34.748Z,16.93
2019-04-20T05:44:58.016Z,15.55
2019-04-20T05:46:26.209Z,15.80
2019-04-20T05:47:56.417Z,15.15
2019-04-20T05:49:28.474Z,14.27
2019-04-20T05:50:48.240Z,15.20
2019-04-20T05:52:31.080Z,15.20
2019-04-20T05:53:44.365Z,13.80
2019-04-20T05:55:16.174Z,13.95
2019-04-20T05:56:39.964Z,13.13
2019-04-20T05:58:08.943Z,12.20
2019-04-20T05:59:37.427Z,8.58
2019-04-20T06:01:08.853Z,11.60
2019-04-20T06:02:32.116Z,12.65
2019-04-20T06:03:53.859Z,13.10
2019-04-20T06:05:28.754Z,14.38
2019-04-20T06:06:54.964Z,14.68
2019-04-20T06:08:29.079Z,15.68
2019-04-20T06:09:47.917Z,17.20
2019-04-20T06:11:17.950Z,18.15
2019-04-20T06:12:40.029Z,16.67
2019-04-20T06:14:14.437Z,17.95
2019-04-20T06:16:04.018Z,16.10
2019-04-20T06:17:49.428Z,16.05
2019-04-20T06:19:26.350Z,17.23
2019-04-20T06:20:50.299Z,17.73
2019-04-20T06:22:27.262Z,17.75
2019-04-20T06:23:56.739Z,19.25
2019-04-20T06:25:40.834Z,17.37
2019-04-20T06:27:11.449Z,18.52
2019-04-20T06:28:22.182Z,17.75
2019-04-20T06:29:45.764Z,17.48
2019-04-20T06:31:18.086Z,16.95
2019-04-20T06:33:34.567Z,15.72
2019-04-20T06:34:42.614Z,17.92
2019-04-20T06:36:23.491Z,18.35
2019-04-20T06:37:46.262Z,19.27
2019-04-20T06:39:16.183Z,19.10
2019-04-20T06:40:54.166Z,17.12
2019-04-20T06:42:10.830Z,15.43
2019-04-20T06:43:40.880Z,16.00
2019-04-20T06:45:04.530Z,15.00
2019-04-20T06:46:31.940Z,14.13
2019-04-20T06:47:57.878Z,16.80
2019-04-20T06:49:29.204Z,15.00
2019-04-20T06:50:48.305Z,16.62
2019-04-20T06:52:34.425Z,14.20
2019-04-20T06:53:49.912Z,15.08
2019-04-20T06:55:22.048Z,14.80
2019-04-20T06:56:48.523Z,15.20
2019-04-20T06:58:33.443Z,14.65
2019-04-20T07:00:03.763Z,15.43
2019-04-20T07:01:11.427Z,14.68
2019-04-20T07:02:41.498Z,13.20
2019-04-20T07:04:27.856Z,14.18
2019-04-20T07:05:31.107Z,11.48
2019-04-20T07:07:11.400Z,11.60
2019-04-20T07:08:40.910Z,10.85
2019-04-20T07:10:08.608Z,10.88
2019-04-20T07:11:25.087Z,11.15
2019-04-20T07:12:46.977Z,11.03
2019-04-20T07:14:02.882Z,9.45
2019-04-20T07:15:49.711Z,8.15
2019-04-20T07:19:17.561Z,9.60
2019-04-20T07:21:33.464Z,8.73
2019-04-20T07:22:55.615Z,8.13
2019-04-20T07:24:25.530Z,8.10
2019-04-20T07:25:49.049Z,7.95
2019-04-20T07:27:17.005Z,7.12
2019-04-20T07:29:00.423Z,7.95
2019-04-20T07:30:08.027Z,7.97
2019-04-20T07:31:29.304Z,7.78
2019-04-20T07:33:02.427Z,8.58
2019-04-20T07:34:29.013Z,8.73
2019-04-20T07:35:50.821Z,8.20
2019-04-20T07:39:19.373Z,8.45
2019-04-20T07:40:35.949Z,9.85
2019-04-20T07:42:08.517Z,9.20
2019-04-20T07:43:32.104Z,8.50
2019-04-20T07:45:01.807Z,8.43
2019-04-20T07:46:43.489Z,7.75
2019-04-20T07:48:13.701Z,7.92
2019-04-20T07:49:20.452Z,8.28
2019-04-20T07:50:37.381Z,8.68
2019-04-20T07:51:53.945Z,8.70
2019-04-20T07:53:33.286Z,8.90
2019-04-20T07:55:31.954Z,7.00
2019-04-20T07:56:37.056Z,7.92
2019-04-20T07:57:55.104Z,8.98
2019-04-20T07:59:17.842Z,7.05
2019-04-20T08:01:07.878Z,7.78
2019-04-20T08:02:48.891Z,6.80
2019-04-20T08:04:17.160Z,5.78
2019-04-20T08:05:43.015Z,6.25
2019-04-20T08:07:02.120Z,5.25
2019-04-20T08:08:42.223Z,5.50
2019-04-20T08:09:57.323Z,4.92
2019-04-20T08:11:40.213Z,6.12
2019-04-20T08:13:14.252Z,5.70
2019-04-20T08:14:39.869Z,6.22
2019-04-20T08:16:01.578Z,5.80
2019-04-20T08:17:48.461Z,5.78
2019-04-20T08:18:55.469Z,5.85
2019-04-20T08:20:22.017Z,4.90
2019-04-20T08:22:08.278Z,5.00
2019-04-20T08:23:19.731Z,6.10
2019-04-20T08:24:45.667Z,5.95
2019-04-20T08:26:04.388Z,5.90
2019-04-20T08:27:23.493Z,5.28
2019-04-20T08:29:01.611Z,5.47
2019-04-20T08:30:58.213Z,5.70
2019-04-20T08:32:37.815Z,6.37
2019-04-20T08:35:39.301Z,6.80
2019-04-20T08:37:00.928Z,7.00
2019-04-20T08:39:00.152Z,6.75
2019-04-20T08:40:04.053Z,7.08
2019-04-20T08:41:22.150Z,6.30
2019-04-20T08:43:02.449Z,7.37
2019-04-20T08:44:41.559Z,5.67
2019-04-20T08:45:57.302Z,5.55
2019-04-20T08:47:37.908Z,5.10
2019-04-20T08:48:46.632Z,5.17
2019-04-20T08:50:19.834Z,5.53
2019-04-20T08:51:49.693Z,6.05
2019-04-20T08:54:34.295Z,6.42
2019-04-20T08:55:55.372Z,5.30
2019-04-20T08:57:13.509Z,4.33
2019-04-20T08:58:39.393Z,5.58
2019-04-20T09:00:07.231Z,5.40
2019-04-20T09:01:35.726Z,5.37
2019-04-20T09:03:09.400Z,4.80
2019-04-20T09:04:37.335Z,4.75
2019-04-20T09:06:03.553Z,5.55
2019-04-20T09:07:26.302Z,6.72
2019-04-20T09:09:03.569Z,6.78
2019-04-20T09:10:39.176Z,5.85
2019-04-20T09:12:05.317Z,6.00
2019-04-20T09:13:21.212Z,6.67
2019-04-20T09:14:40.265Z,6.30
2019-04-20T09:16:06.656Z,7.20
2019-04-20T09:17:44.959Z,6.67
2019-04-20T09:19:07.602Z,6.65
2019-04-20T09:20:45.937Z,9.15
2019-04-20T09:22:32.303Z,8.30
2019-04-20T09:24:10.560Z,9.35
2019-04-20T09:25:54.610Z,11.33
2019-04-20T09:27:04.578Z,13.45
2019-04-20T09:28:54.343Z,11.53
2019-04-20T09:30:30.324Z,12.45
2019-04-20T09:32:12.055Z,12.70
2019-04-20T09:34:01.605Z,11.80
2019-04-20T09:35:34.086Z,13.68
2019-04-20T09:37:20.400Z,12.88
2019-04-20T09:38:57.083Z,14.68
2019-04-20T09:40:35.557Z,14.00
2019-04-20T09:42:01.264Z,13.05
2019-04-20T09:43:32.404Z,14.20
2019-04-20T09:45:02.473Z,13.65
2019-04-20T09:46:26.393Z,13.32
2019-04-20T09:47:54.912Z,12.00
2019-04-20T09:49:33.108Z,11.10
2019-04-20T09:51:07.165Z,11.43
2019-04-20T09:52:30.074Z,11.25
2019-04-20T09:53:52.627Z,10.18
2019-04-20T09:55:23.374Z,9.65
2019-04-20T09:56:59.577Z,8.90
2019-04-20T09:58:15.540Z,9.90
2019-04-20T09:59:51.090Z,8.28
2019-04-20T10:01:13.315Z,9.38
2019-04-20T10:02:29.887Z,9.70
2019-04-20T10:03:53.135Z,9.83
2019-04-20T10:05:19.798Z,9.40
2019-04-20T10:06:45.625Z,10.00
2019-04-20T10:08:11.807Z,8.90
2019-04-20T10:09:41.633Z,8.78
2019-04-20T10:11:05.690Z,8.93
2019-04-20T10:12:31.521Z,8.58
2019-04-20T10:14:01.984Z,9.80
2019-04-20T10:15:29.620Z,8.98
2019-04-20T10:16:55.851Z,8.70
2019-04-20T10:18:21.886Z,9.05
2019-04-20T10:19:48.349Z,9.33
2019-04-20T10:21:15.826Z,9.48
2019-04-20T10:22:42.545Z,10.18
2019-04-20T10:24:08.596Z,11.50
2019-04-20T10:25:34.241Z,9.35
2019-04-20T10:27:00.830Z,8.95
2019-04-20T10:28:29.762Z,10.32
2019-04-20T10:29:55.639Z,9.63
2019-04-20T10:31:24.421Z,10.28
2019-04-20T10:32:53.829Z,10.48
2019-04-20T10:34:20.782Z,11.25
2019-04-20T10:35:45.617Z,10.48
2019-04-20T10:37:37.662Z,9.30
2019-04-20T10:39:06.680Z,10.88
2019-04-20T10:40:44.970Z,11.22
2019-04-20T10:42:03.775Z,9.73
2019-04-20T10:43:28.086Z,9.75
2019-04-20T10:44:57.113Z,10.23
2019-04-20T10:46:21.113Z,12.13
2019-04-20T10:47:47.340Z,11.73
2019-04-20T10:49:15.471Z,11.35
2019-04-20T10:50:41.052Z,11.40
2019-04-20T10:52:07.794Z,11.35
2019-04-20T10:53:33.683Z,10.75
2019-04-20T10:55:00.543Z,9.85
2019-04-20T10:56:27.527Z,10.68
2019-04-20T10:57:53.549Z,9.13
2019-04-20T10:59:19.359Z,9.50
2019-04-20T11:00:46.365Z,9.40
2019-04-20T11:02:12.145Z,10.50
2019-04-20T11:03:38.469Z,9.60
2019-04-20T11:05:04.773Z,8.43
2019-04-20T11:06:30.563Z,9.65
2019-04-20T11:07:56.799Z,9.50
2019-04-20T11:09:22.733Z,8.75
2019-04-20T11:11:01.518Z,9.93
2019-04-20T11:12:16.603Z,14.27
2019-04-20T11:13:43.456Z,27.67
2019-04-20T11:15:10.383Z,60.67
2019-04-20T11:16:36.225Z,16.40
2019-04-20T11:18:01.747Z,30.03
2019-04-20T11:19:29.875Z,29.80
2019-04-20T11:20:55.460Z,53.73
2019-04-20T11:22:22.249Z,86.27
2019-04-20T11:23:48.063Z,266.40
2019-04-20T11:25:14.521Z,327.67
2019-04-20T11:26:41.828Z,64.97
2019-04-20T11:28:08.203Z,130.20
2019-04-20T11:29:33.985Z,32.27
2019-04-20T11:30:59.583Z,27.70
2019-04-20T11:32:26.149Z,41.73
2019-04-20T11:33:52.368Z,49.97
2019-04-20T11:35:26.897Z,70.30
2019-04-20T11:36:45.582Z,21.53
2019-04-20T11:38:13.723Z,20.33
2019-04-20T11:39:39.126Z,43.10
2019-04-20T11:41:17.832Z,16.10
2019-04-20T11:42:39.351Z,19.63
2019-04-20T11:44:05.620Z,14.70
2019-04-20T11:45:32.913Z,13.70
2019-04-20T11:46:58.801Z,11.73
2019-04-20T11:48:25.485Z,7.13
2019-04-20T11:49:51.815Z,10.40
2019-04-20T11:51:19.593Z,12.93
2019-04-20T11:52:48.147Z,12.63
2019-04-20T11:54:12.651Z,6.93
2019-04-20T11:55:38.336Z,6.57
2019-04-20T11:57:03.981Z,6.10
2019-04-20T11:58:30.359Z,6.90
2019-04-20T11:59:57.598Z,6.23
2019-04-20T12:01:47.597Z,5.30
2019-04-20T12:03:50.659Z,6.30
2019-04-20T12:05:22.039Z,6.50
2019-04-20T12:06:36.683Z,7.30
2019-04-20T12:08:07.035Z,21.67
2019-04-20T12:09:33.547Z,7.10
2019-04-20T12:11:01.772Z,5.57
2019-04-20T12:12:35.024Z,6.60
2019-04-20T12:13:54.521Z,7.27
2019-04-20T12:15:20.228Z,4.60
2019-04-20T12:16:45.880Z,8.80
2019-04-20T12:18:31.681Z,3.90
2019-04-20T12:19:57.812Z,3.57
2019-04-20T12:21:28.653Z,5.80
2019-04-20T12:23:06.428Z,5.47
2019-04-20T12:24:33.206Z,5.90
2019-04-20T12:25:59.786Z,6.20
2019-04-20T12:27:26.881Z,3.87
2019-04-20T12:28:53.713Z,6.10
2019-04-20T12:30:19.680Z,10.33
2019-04-20T12:31:51.157Z,4.70
2019-04-20T12:33:15.627Z,3.57
2019-04-20T12:34:41.397Z,3.77
2019-04-20T12:36:10.243Z,3.90
2019-04-20T12:37:36.888Z,3.83
2019-04-20T12:39:13.200Z,3.67
2019-04-20T12:40:40.067Z,6.27
2019-04-20T12:42:21.102Z,2.20
2019-04-20T12:43:56.038Z,3.00
2019-04-20T12:45:38.183Z,4.60
2019-04-20T12:47:05.778Z,4.20
2019-04-20T12:48:33.622Z,2.93
2019-04-20T12:50:23.585Z,3.50
2019-04-20T12:51:52.593Z,2.90
2019-04-20T12:53:30.734Z,4.10
2019-04-20T12:54:58.417Z,3.30
2019-04-20T12:56:24.473Z,3.70
2019-04-20T12:57:56.942Z,2.20
2019-04-20T12:59:21.176Z,4.27
2019-04-20T13:00:49.906Z,4.03
2019-04-20T13:02:19.677Z,3.20
2019-04-20T13:03:49.841Z,2.97
2019-04-20T13:05:17.474Z,2.53
2019-04-20T13:06:44.678Z,3.80
2019-04-20T13:08:14.333Z,1.50
2019-04-20T13:09:46.381Z,2.90
2019-04-20T13:11:20.824Z,10.40
2019-04-20T13:12:58.482Z,5.83
2019-04-20T13:15:42.383Z,8.10
2019-04-20T13:17:08.319Z,8.87
2019-04-20T13:18:53.042Z,5.43
2019-04-20T13:20:18.679Z,4.40
2019-04-20T13:21:45.107Z,4.70
2019-04-20T13:23:11.022Z,6.47
2019-04-20T13:24:36.969Z,4.20
2019-04-20T13:26:05.392Z,3.63
2019-04-20T13:27:31.084Z,5.20
2019-04-20T13:28:57.115Z,2.40
2019-04-20T13:30:23.897Z,2.17
2019-04-20T13:31:51.999Z,2.87
2019-04-20T13:33:17.969Z,2.53
2019-04-20T13:34:44.524Z,3.00
2019-04-20T13:36:10.416Z,2.73
2019-04-20T13:37:38.730Z,3.50
2019-04-20T13:39:03.906Z,2.90
2019-04-20T13:40:31.043Z,2.10
2019-04-20T13:42:07.577Z,2.30
2019-04-20T13:43:24.048Z,2.37
2019-04-20T13:44:50.691Z,2.50
2019-04-20T13:46:16.411Z,3.03
2019-04-20T13:47:43.097Z,2.53
2019-04-20T13:49:11.325Z,2.70
2019-04-20T13:50:38.028Z,3.30
2019-04-20T13:52:04.641Z,3.80
2019-04-20T13:53:30.231Z,3.93
2019-04-20T13:54:55.905Z,4.53
2019-04-20T13:56:23.521Z,4.40
2019-04-20T13:58:09.678Z,4.03
2019-04-20T13:59:39.951Z,3.77
2019-04-20T14:01:39.481Z,4.47
2019-04-20T14:03:11.060Z,4.80
2019-04-20T14:04:41.024Z,5.00
2019-04-20T14:06:06.877Z,3.73
2019-04-20T14:07:35.536Z,3.17
2019-04-20T14:09:03.463Z,2.77
2019-04-20T14:10:29.309Z,2.50
2019-04-20T14:11:54.860Z,3.07
2019-04-20T14:13:22.200Z,3.27
2019-04-20T14:14:48.844Z,3.20
2019-04-20T14:16:14.599Z,3.07
2019-04-20T14:17:41.300Z,2.23
2019-04-20T14:19:07.236Z,3.20
2019-04-20T14:20:34.018Z,2.80
2019-04-20T14:21:59.802Z,2.93
2019-04-20T14:23:25.511Z,2.17
2019-04-20T14:24:51.162Z,2.13
2019-04-20T14:26:16.788Z,2.57
2019-04-20T14:27:42.838Z,2.80
2019-04-20T14:29:09.083Z,3.00
2019-04-20T14:30:35.684Z,2.97
2019-04-20T14:32:03.531Z,2.27
2019-04-20T14:33:28.641Z,2.70
2019-04-20T14:34:54.283Z,2.63
2019-04-20T14:36:21.008Z,2.50
2019-04-20T14:37:47.818Z,2.20
2019-04-20T14:39:14.136Z,3.03
2019-04-20T14:40:40.036Z,2.20
2019-04-20T14:42:24.267Z,2.30
2019-04-20T14:43:34.684Z,2.50
2019-04-20T14:45:00.099Z,3.30
2019-04-20T14:46:29.519Z,3.03
2019-04-20T14:47:57.387Z,3.13
2019-04-20T14:49:25.754Z,2.80
2019-04-20T14:50:51.930Z,2.23
2019-04-20T14:52:17.723Z,1.70
2019-04-20T14:53:43.339Z,2.43
2019-04-20T14:55:12.439Z,2.12
2019-04-20T14:56:37.672Z,2.17
2019-04-20T14:58:07.943Z,2.20
2019-04-20T14:59:37.793Z,2.13
2019-04-20T15:01:08.875Z,1.67
2019-04-20T15:02:34.368Z,1.52
2019-04-20T15:04:04.764Z,2.03
2019-04-20T15:05:28.741Z,2.90
2019-04-20T15:06:54.851Z,2.30
2019-04-20T15:08:22.820Z,1.87
2019-04-20T15:09:48.844Z,4.05
2019-04-20T15:11:14.814Z,3.40
2019-04-20T15:12:48.827Z,2.07
2019-04-20T15:14:08.858Z,3.00
2019-04-20T15:15:34.707Z,2.87
2019-04-20T15:17:00.630Z,2.43
2019-04-20T15:18:31.483Z,3.03
2019-04-20T15:20:28.093Z,2.23
2019-04-20T15:21:55.747Z,2.30
2019-04-20T15:23:23.835Z,2.40
2019-04-20T15:24:49.476Z,2.33
2019-04-20T15:26:16.089Z,2.60
2019-04-20T15:27:44.722Z,2.40
2019-04-20T15:29:10.389Z,2.90
2019-04-20T15:30:36.183Z,6.87
2019-04-20T15:32:02.093Z,25.77
2019-04-20T15:33:28.287Z,32.00
2019-04-20T15:34:55.005Z,13.30
2019-04-20T15:36:22.073Z,8.50
2019-04-20T15:37:49.058Z,5.10
2019-04-20T15:39:14.988Z,6.33
2019-04-20T15:40:41.454Z,5.72
2019-04-20T15:42:07.446Z,7.62
2019-04-20T15:43:33.287Z,4.97
2019-04-20T15:45:01.101Z,6.77
2019-04-20T15:46:31.711Z,8.10
2019-04-20T15:47:56.603Z,9.15
2019-04-20T15:49:22.173Z,8.03
2019-04-20T15:50:47.911Z,8.77
2019-04-20T15:52:17.859Z,4.43
2019-04-20T15:53:41.755Z,4.97
2019-04-20T15:55:14.310Z,4.83
2019-04-20T15:56:35.505Z,4.53
2019-04-20T15:58:04.537Z,3.93
2019-04-20T15:59:28.794Z,4.33
2019-04-20T16:00:54.665Z,3.70
2019-04-20T16:02:39.115Z,3.30
2019-04-20T16:04:21.692Z,3.17
2019-04-20T16:05:45.207Z,3.10
2019-04-20T16:07:11.014Z,2.67
2019-04-20T16:08:38.745Z,2.57
2019-04-20T16:10:05.342Z,3.00
2019-04-20T16:11:31.133Z,3.63
2019-04-20T16:13:07.978Z,3.20
2019-04-20T16:14:23.806Z,3.60
2019-04-20T16:15:49.747Z,3.63
2019-04-20T16:17:15.557Z,3.30
2019-04-20T16:18:41.229Z,3.00
2019-04-20T16:20:12.443Z,3.60
2019-04-20T16:21:37.233Z,2.90
2019-04-20T16:23:02.803Z,2.20
2019-04-20T16:24:32.975Z,2.80
2019-04-20T16:26:21.782Z,3.10
2019-04-20T16:27:47.686Z,3.20
2019-04-20T16:29:13.510Z,4.10
2019-04-20T16:30:39.025Z,4.60
2019-04-20T16:32:04.763Z,3.83
2019-04-20T16:33:30.497Z,3.80
2019-04-20T16:34:56.201Z,3.20
2019-04-20T16:36:22.854Z,2.90
2019-04-20T16:37:48.559Z,3.90
2019-04-20T16:39:14.419Z,4.07
2019-04-20T16:40:40.253Z,3.80
2019-04-20T16:42:06.730Z,3.00
2019-04-20T16:43:39.197Z,3.57
2019-04-20T16:45:03.300Z,3.70
2019-04-20T16:46:30.089Z,3.50
2019-04-20T16:47:58.420Z,3.30
2019-04-20T16:49:23.368Z,3.63
2019-04-20T16:50:49.058Z,3.57
2019-04-20T16:52:14.940Z,3.23
2019-04-20T16:53:41.387Z,3.80
2019-04-20T16:55:08.233Z,3.07
2019-04-20T16:56:35.030Z,3.93
2019-04-20T16:58:01.741Z,4.10
2019-04-20T16:59:28.266Z,4.40
2019-04-20T17:00:53.909Z,6.40
2019-04-20T17:02:21.113Z,5.03
2019-04-20T17:03:54.579Z,5.60
2019-04-20T17:05:13.819Z,6.00
2019-04-20T17:06:42.335Z,6.83
2019-04-20T17:08:08.946Z,4.97
2019-04-20T17:09:35.635Z,4.10
2019-04-20T17:11:01.633Z,3.53
2019-04-20T17:12:28.067Z,4.20
2019-04-20T17:13:56.629Z,4.47
2019-04-20T17:15:21.499Z,4.20
2019-04-20T17:16:47.138Z,4.13
2019-04-20T17:18:13.620Z,4.00
2019-04-20T17:19:39.863Z,4.10
2019-04-20T17:21:14.094Z,4.80
2019-04-20T17:22:32.611Z,3.87
2019-04-20T17:23:59.385Z,4.27
2019-04-20T17:25:25.885Z,4.97
2019-04-20T17:27:10.899Z,5.47
2019-04-20T17:29:01.885Z,5.43
2019-04-20T17:30:54.978Z,4.23
2019-04-20T17:32:23.250Z,4.33
2019-04-20T17:34:03.867Z,3.30
2019-04-20T17:35:34.107Z,4.00
2019-04-20T17:36:48.483Z,4.40
2019-04-20T17:38:14.390Z,3.47
2019-04-20T17:40:03.812Z,3.53
2019-04-20T17:41:29.140Z,6.47
2019-04-20T17:42:49.649Z,16.10
2019-04-20T17:44:23.806Z,21.37
2019-04-20T17:45:41.986Z,19.00
2019-04-20T17:47:14.039Z,15.33
2019-04-20T17:48:36.092Z,9.80
2019-04-20T17:50:10.854Z,6.83
2019-04-20T17:51:39.637Z,6.43
2019-04-20T17:53:02.790Z,6.63
2019-04-20T17:54:49.656Z,6.00
2019-04-20T17:56:15.434Z,5.80
2019-04-20T17:57:41.499Z,7.17
2019-04-20T17:59:08.107Z,7.67
2019-04-20T18:00:58.255Z,7.20
2019-04-20T18:02:53.539Z,5.67
2019-04-20T18:04:34.361Z,5.40
2019-04-20T18:06:03.337Z,5.90
2019-04-20T18:07:31.218Z,6.10
2019-04-20T18:08:49.393Z,13.00
2019-04-20T18:10:23.199Z,6.00
2019-04-20T18:11:37.312Z,6.17
2019-04-20T18:12:57.084Z,4.80
2019-04-20T18:14:40.231Z,5.67
2019-04-20T18:16:12.381Z,4.67
2019-04-20T18:17:56.254Z,5.65
2019-04-20T18:19:17.537Z,4.80
2019-04-20T18:21:06.368Z,8.93
2019-04-20T18:22:31.994Z,12.37
2019-04-20T18:23:58.268Z,9.85
2019-04-20T18:25:53.227Z,10.70
2019-04-20T18:27:07.205Z,9.43
2019-04-20T18:28:33.861Z,8.83
2019-04-20T18:30:06.806Z,10.37
2019-04-20T18:31:21.845Z,12.77
2019-04-20T18:32:47.498Z,14.30
2019-04-20T18:34:20.637Z,9.90
2019-04-20T18:35:47.451Z,8.07
2019-04-20T18:37:16.899Z,6.70
2019-04-20T18:38:49.121Z,6.13
2019-04-20T18:40:11.109Z,5.57
2019-04-20T18:41:41.842Z,5.97
2019-04-20T18:43:09.344Z,4.90
2019-04-20T18:44:54.008Z,5.20
2019-04-20T18:46:15.118Z,4.47
2019-04-20T18:47:45.242Z,4.97
2019-04-20T18:49:09.804Z,4.97
2019-04-20T18:50:25.233Z,4.37
2019-04-20T18:51:46.086Z,4.80
2019-04-20T18:53:18.527Z,4.93
2019-04-20T18:54:42.681Z,4.50
2019-04-20T18:56:07.795Z,4.23
2019-04-20T18:57:34.968Z,4.20
2019-04-20T18:59:01.102Z,3.90
2019-04-20T19:00:32.476Z,4.90
2019-04-20T19:01:54.996Z,4.23
2019-04-20T19:03:27.699Z,4.43
2019-04-20T19:04:48.150Z,4.00
2019-04-20T19:06:14.172Z,4.67
2019-04-20T19:07:47.767Z,4.20
2019-04-20T19:09:10.477Z,4.50
2019-04-20T19:10:38.632Z,4.30
2019-04-20T19:12:06.062Z,4.50
2019-04-20T19:13:41.502Z,3.97
2019-04-20T19:15:43.947Z,3.97
2019-04-20T19:17:05.803Z,3.20
2019-04-20T19:19:03.910Z,3.73
2019-04-20T19:20:26.545Z,4.27
2019-04-20T19:21:51.970Z,4.40
2019-04-20T19:23:18.860Z,6.20
2019-04-20T19:24:45.142Z,5.73
2019-04-20T19:26:16.309Z,5.00
2019-04-20T19:27:44.645Z,4.90
2019-04-20T19:29:15.911Z,4.83
2019-04-20T19:30:41.306Z,4.77
2019-04-20T19:32:20.429Z,4.50
2019-04-20T19:33:37.616Z,4.10
2019-04-20T19:35:06.122Z,3.27
2019-04-20T19:36:31.751Z,3.20
2019-04-20T19:38:01.392Z,3.00
2019-04-20T19:39:30.303Z,3.37
2019-04-20T19:40:54.545Z,3.40
2019-04-20T19:42:27.439Z,2.93
2019-04-20T19:43:48.399Z,3.83
2019-04-20T19:45:34.493Z,4.23
2019-04-20T19:47:11.181Z,3.20
2019-04-20T19:48:17.398Z,3.53
2019-04-20T19:49:37.013Z,3.90
2019-04-20T19:51:19.480Z,4.13
2019-04-20T19:53:03.649Z,3.33
2019-04-20T19:54:24.241Z,3.67
2019-04-20T19:55:50.603Z,4.07
2019-04-20T19:57:22.161Z,3.80
2019-04-20T19:58:45.569Z,3.50
2019-04-20T19:59:59.817Z,4.97
2019-04-20T20:01:25.245Z,4.80
2019-04-20T20:02:51.969Z,4.50